Blacklick, Ohio
Current Conditions -  °F | °C
As of 7:51 AM on Saturday 22 Nov 2014 (Local Time) from KCMH Reporting Station
Freezing Rain Freezing Rain  
Wind Chill: 25°   Ceiling: 3500
Heat Index: 30°   Visibility: 5mi
Dew Point: 25°   Wind: 5mph
Humidity: 82%   Direction: 150°SSE
Pressure: 30.29"   Gusts: NA
Location:  40°N, 82.81°W
Report Text: KCMH 221251Z 15004KT 5SM -FZRA SCT024 BKN035 OVC060 M01/M04 A3029 RMK AO2 SLP268 P0003 T10111039 $
Loading
Personal Weather Stations






























Interactive Weather Map New forecast layout! Learn more

10-Day Weather Forecast

Advertisements
Track Severe Weather on mobile